sensor_id;sensor_type;location;lat;lon;timestamp;pressure;altitude;pressure_sealevel;temperature;humidity
8653;BME280;4364;52.426;9.424;2023-05-17T00:00:22;101606.22;;;8.08;86.71
8653;BME280;4364;52.426;9.424;2023-05-17T00:02:48;101598.81;;;8.03;86.31
8653;BME280;4364;52.426;9.424;2023-05-17T00:05:15;101601.63;;;8.08;86.89
8653;BME280;4364;52.426;9.424;2023-05-17T00:07:41;101598.13;;;7.96;87.04
8653;BME280;4364;52.426;9.424;2023-05-17T00:10:08;101598.47;;;8.00;87.25
8653;BME280;4364;52.426;9.424;2023-05-17T00:12:35;101594.97;;;7.87;87.63
8653;BME280;4364;52.426;9.424;2023-05-17T00:15:01;101587.66;;;7.88;87.81
8653;BME280;4364;52.426;9.424;2023-05-17T00:17:28;101591.66;;;7.85;88.27
8653;BME280;4364;52.426;9.424;2023-05-17T00:19:54;101597.06;;;7.97;86.99
8653;BME280;4364;52.426;9.424;2023-05-17T00:22:21;101599.41;;;7.82;88.39
8653;BME280;4364;52.426;9.424;2023-05-17T00:24:47;101595.66;;;7.71;88.74
8653;BME280;4364;52.426;9.424;2023-05-17T00:27:14;101597.19;;;7.67;89.06
8653;BME280;4364;52.426;9.424;2023-05-17T00:29:40;101603.78;;;7.71;89.53
8653;BME280;4364;52.426;9.424;2023-05-17T00:32:09;101597.56;;;7.70;88.95
8653;BME280;4364;52.426;9.424;2023-05-17T00:34:35;101603.44;;;7.67;89.68
8653;BME280;4364;52.426;9.424;2023-05-17T00:37:02;101600.50;;;7.57;89.71
8653;BME280;4364;52.426;9.424;2023-05-17T00:39:29;101593.53;;;7.49;90.09
8653;BME280;4364;52.426;9.424;2023-05-17T00:41:56;101592.72;;;7.49;91.23
8653;BME280;4364;52.426;9.424;2023-05-17T00:44:23;101593.66;;;7.42;91.03
8653;BME280;4364;52.426;9.424;2023-05-17T00:46:49;101590.03;;;7.49;90.40
8653;BME280;4364;52.426;9.424;2023-05-17T00:49:16;101597.28;;;7.48;90.86
8653;BME280;4364;52.426;9.424;2023-05-17T00:51:43;101591.53;;;7.45;90.95
8653;BME280;4364;52.426;9.424;2023-05-17T00:54:10;101598.25;;;7.42;91.17
8653;BME280;4364;52.426;9.424;2023-05-17T00:56:37;101592.72;;;7.37;91.39
8653;BME280;4364;52.426;9.424;2023-05-17T00:59:05;101601.53;;;7.32;91.38
8653;BME280;4364;52.426;9.424;2023-05-17T01:01:32;101596.00;;;7.27;91.97
8653;BME280;4364;52.426;9.424;2023-05-17T01:04:01;101594.78;;;7.23;92.10
8653;BME280;4364;52.426;9.424;2023-05-17T01:06:27;101596.56;;;7.29;92.06
8653;BME280;4364;52.426;9.424;2023-05-17T01:08:54;101599.38;;;7.22;92.71
8653;BME280;4364;52.426;9.424;2023-05-17T01:11:33;101604.34;;;7.26;92.45
8653;BME280;4364;52.426;9.424;2023-05-17T01:14:26;101603.13;;;7.21;92.64
8653;BME280;4364;52.426;9.424;2023-05-17T01:16:58;101604.66;;;7.17;92.59
8653;BME280;4364;52.426;9.424;2023-05-17T01:25:49;101613.84;;;7.16;93.82
8653;BME280;4364;52.426;9.424;2023-05-17T01:28:19;101612.44;;;7.14;94.22
8653;BME280;4364;52.426;9.424;2023-05-17T01:30:46;101619.34;;;7.10;94.54
8653;BME280;4364;52.426;9.424;2023-05-17T01:33:14;101614.66;;;7.05;95.30
8653;BME280;4364;52.426;9.424;2023-05-17T01:35:41;101620.31;;;7.15;94.97
8653;BME280;4364;52.426;9.424;2023-05-17T01:38:08;101620.00;;;7.23;93.53
8653;BME280;4364;52.426;9.424;2023-05-17T01:40:43;101611.75;;;7.18;94.06
8653;BME280;4364;52.426;9.424;2023-05-17T01:43:25;101617.84;;;7.14;94.78
8653;BME280;4364;52.426;9.424;2023-05-17T01:46:04;101619.69;;;7.13;95.27
8653;BME280;4364;52.426;9.424;2023-05-17T01:48:38;101621.38;;;7.14;95.11
8653;BME280;4364;52.426;9.424;2023-05-17T01:51:08;101622.19;;;7.15;95.28
8653;BME280;4364;52.426;9.424;2023-05-17T01:53:38;101625.00;;;7.20;95.32
8653;BME280;4364;52.426;9.424;2023-05-17T01:56:15;101615.84;;;7.21;95.41
8653;BME280;4364;52.426;9.424;2023-05-17T01:58:47;101630.56;;;7.25;95.19
8653;BME280;4364;52.426;9.424;2023-05-17T02:01:15;101633.50;;;7.23;95.66
8653;BME280;4364;52.426;9.424;2023-05-17T02:03:43;101633.28;;;7.25;95.65
8653;BME280;4364;52.426;9.424;2023-05-17T02:06:12;101636.56;;;7.27;96.03
8653;BME280;4364;52.426;9.424;2023-05-17T02:08:40;101637.06;;;7.36;95.30
8653;BME280;4364;52.426;9.424;2023-05-17T02:11:06;101632.34;;;7.43;95.22
8653;BME280;4364;52.426;9.424;2023-05-17T02:13:33;101642.00;;;7.39;95.84
8653;BME280;4364;52.426;9.424;2023-05-17T02:16:00;101644.03;;;7.44;95.70
8653;BME280;4364;52.426;9.424;2023-05-17T02:18:31;101647.22;;;7.52;95.37
8653;BME280;4364;52.426;9.424;2023-05-17T02:21:00;101651.44;;;7.60;96.13
8653;BME280;4364;52.426;9.424;2023-05-17T02:23:27;101645.44;;;7.70;96.31
8653;BME280;4364;52.426;9.424;2023-05-17T02:25:53;101644.63;;;7.57;96.53
8653;BME280;4364;52.426;9.424;2023-05-17T02:28:20;101647.00;;;7.66;95.92
8653;BME280;4364;52.426;9.424;2023-05-17T02:30:47;101644.16;;;7.72;96.62
8653;BME280;4364;52.426;9.424;2023-05-17T02:33:14;101657.72;;;7.72;96.08
8653;BME280;4364;52.426;9.424;2023-05-17T02:35:40;101653.00;;;7.79;96.09
8653;BME280;4364;52.426;9.424;2023-05-17T02:38:07;101658.75;;;7.71;95.81
8653;BME280;4364;52.426;9.424;2023-05-17T02:40:33;101660.06;;;7.69;95.71
8653;BME280;4364;52.426;9.424;2023-05-17T02:43:01;101655.09;;;7.66;96.07
8653;BME280;4364;52.426;9.424;2023-05-17T02:45:27;101661.81;;;7.75;96.22
8653;BME280;4364;52.426;9.424;2023-05-17T02:47:54;101652.28;;;7.72;95.53
8653;BME280;4364;52.426;9.424;2023-05-17T02:50:21;101665.13;;;7.65;95.67
8653;BME280;4364;52.426;9.424;2023-05-17T02:52:47;101659.94;;;7.64;96.40
8653;BME280;4364;52.426;9.424;2023-05-17T02:55:14;101664.25;;;7.53;96.83
8653;BME280;4364;52.426;9.424;2023-05-17T02:57:41;101670.97;;;7.50;97.18
8653;BME280;4364;52.426;9.424;2023-05-17T03:00:08;101670.59;;;7.47;96.77
8653;BME280;4364;52.426;9.424;2023-05-17T03:02:35;101674.38;;;7.46;97.45
8653;BME280;4364;52.426;9.424;2023-05-17T03:05:03;101677.22;;;7.51;96.88
8653;BME280;4364;52.426;9.424;2023-05-17T03:07:30;101674.28;;;7.52;96.89
8653;BME280;4364;52.426;9.424;2023-05-17T03:09:57;101679.09;;;7.50;96.88
8653;BME280;4364;52.426;9.424;2023-05-17T03:12:26;101680.34;;;7.36;97.29
8653;BME280;4364;52.426;9.424;2023-05-17T03:14:55;101679.88;;;7.39;97.23
8653;BME280;4364;52.426;9.424;2023-05-17T03:17:22;101684.50;;;7.38;96.95
8653;BME280;4364;52.426;9.424;2023-05-17T03:19:49;101685.28;;;7.27;97.25
8653;BME280;4364;52.426;9.424;2023-05-17T03:22:16;101689.03;;;7.26;96.71
8653;BME280;4364;52.426;9.424;2023-05-17T03:24:42;101691.41;;;7.34;96.42
8653;BME280;4364;52.426;9.424;2023-05-17T03:27:09;101697.03;;;7.33;96.25
8653;BME280;4364;52.426;9.424;2023-05-17T03:29:36;101701.38;;;7.22;96.78
8653;BME280;4364;52.426;9.424;2023-05-17T03:32:03;101704.31;;;7.20;96.47
8653;BME280;4364;52.426;9.424;2023-05-17T03:34:30;101706.16;;;7.20;96.28
8653;BME280;4364;52.426;9.424;2023-05-17T03:36:56;101714.91;;;7.22;96.45
8653;BME280;4364;52.426;9.424;2023-05-17T03:39:23;101713.00;;;7.22;95.51
8653;BME280;4364;52.426;9.424;2023-05-17T03:41:49;101714.28;;;7.20;95.76
8653;BME280;4364;52.426;9.424;2023-05-17T03:44:17;101715.34;;;7.19;95.12
8653;BME280;4364;52.426;9.424;2023-05-17T03:46:44;101721.44;;;7.14;95.40
8653;BME280;4364;52.426;9.424;2023-05-17T03:49:12;101717.06;;;7.13;94.75
8653;BME280;4364;52.426;9.424;2023-05-17T03:51:39;101719.97;;;7.00;95.21
8653;BME280;4364;52.426;9.424;2023-05-17T03:54:06;101726.06;;;6.95;94.89
8653;BME280;4364;52.426;9.424;2023-05-17T03:56:33;101732.06;;;6.97;94.97
8653;BME280;4364;52.426;9.424;2023-05-17T03:58:59;101728.91;;;7.00;95.08
8653;BME280;4364;52.426;9.424;2023-05-17T04:01:26;101730.72;;;6.88;94.93
8653;BME280;4364;52.426;9.424;2023-05-17T04:03:52;101741.69;;;6.93;94.38
8653;BME280;4364;52.426;9.424;2023-05-17T04:06:20;101743.84;;;7.03;94.28
8653;BME280;4364;52.426;9.424;2023-05-17T04:08:47;101739.72;;;7.00;93.58
8653;BME280;4364;52.426;9.424;2023-05-17T04:11:14;101745.38;;;6.99;93.29
8653;BME280;4364;52.426;9.424;2023-05-17T04:13:41;101750.41;;;6.95;93.32
8653;BME280;4364;52.426;9.424;2023-05-17T04:16:08;101756.63;;;6.96;93.13
8653;BME280;4364;52.426;9.424;2023-05-17T04:18:37;101769.47;;;7.00;92.28
8653;BME280;4364;52.426;9.424;2023-05-17T04:21:05;101763.72;;;6.97;92.37
8653;BME280;4364;52.426;9.424;2023-05-17T04:23:33;101769.94;;;6.97;92.55
8653;BME280;4364;52.426;9.424;2023-05-17T04:26:01;101767.16;;;6.85;93.33
8653;BME280;4364;52.426;9.424;2023-05-17T04:28:30;101775.56;;;6.96;92.72
8653;BME280;4364;52.426;9.424;2023-05-17T04:30:57;101780.50;;;7.17;91.22
8653;BME280;4364;52.426;9.424;2023-05-17T04:33:25;101783.34;;;7.22;91.57
8653;BME280;4364;52.426;9.424;2023-05-17T04:35:55;101783.28;;;7.11;90.34
8653;BME280;4364;52.426;9.424;2023-05-17T04:38:23;101781.19;;;7.13;90.74
8653;BME280;4364;52.426;9.424;2023-05-17T04:40:50;101784.53;;;7.27;89.06
8653;BME280;4364;52.426;9.424;2023-05-17T04:43:17;101799.31;;;7.42;88.41
8653;BME280;4364;52.426;9.424;2023-05-17T04:45:45;101798.06;;;7.45;87.32
8653;BME280;4364;52.426;9.424;2023-05-17T04:48:12;101804.38;;;7.39;88.35
8653;BME280;4364;52.426;9.424;2023-05-17T04:50:44;101801.53;;;7.34;88.68
8653;BME280;4364;52.426;9.424;2023-05-17T04:53:11;101802.97;;;7.48;87.74
8653;BME280;4364;52.426;9.424;2023-05-17T04:55:37;101812.03;;;7.42;87.68
8653;BME280;4364;52.426;9.424;2023-05-17T04:58:04;101816.41;;;7.55;86.03
8653;BME280;4364;52.426;9.424;2023-05-17T05:00:31;101815.88;;;7.65;84.88
8653;BME280;4364;52.426;9.424;2023-05-17T05:03:03;101828.47;;;7.59;84.21
8653;BME280;4364;52.426;9.424;2023-05-17T05:05:31;101823.50;;;7.56;84.70
8653;BME280;4364;52.426;9.424;2023-05-17T05:07:57;101833.75;;;7.54;85.06
8653;BME280;4364;52.426;9.424;2023-05-17T05:10:25;101839.66;;;7.63;84.12
8653;BME280;4364;52.426;9.424;2023-05-17T05:12:54;101836.66;;;7.52;84.10
8653;BME280;4364;52.426;9.424;2023-05-17T05:15:22;101831.31;;;7.64;84.12
8653;BME280;4364;52.426;9.424;2023-05-17T05:17:53;101841.09;;;7.65;83.34
8653;BME280;4364;52.426;9.424;2023-05-17T05:20:20;101838.22;;;7.60;84.03
8653;BME280;4364;52.426;9.424;2023-05-17T05:22:47;101849.34;;;7.70;85.35
8653;BME280;4364;52.426;9.424;2023-05-17T05:25:16;101851.25;;;7.82;84.31
8653;BME280;4364;52.426;9.424;2023-05-17T05:27:43;101850.69;;;7.91;84.96
8653;BME280;4364;52.426;9.424;2023-05-17T05:30:12;101856.47;;;7.95;85.08
8653;BME280;4364;52.426;9.424;2023-05-17T05:32:38;101860.13;;;7.89;83.85
8653;BME280;4364;52.426;9.424;2023-05-17T05:35:06;101863.88;;;7.88;84.01
8653;BME280;4364;52.426;9.424;2023-05-17T05:37:32;101868.25;;;7.89;84.19
8653;BME280;4364;52.426;9.424;2023-05-17T05:39:59;101872.03;;;8.00;82.68
8653;BME280;4364;52.426;9.424;2023-05-17T05:42:28;101876.41;;;8.01;81.30
8653;BME280;4364;52.426;9.424;2023-05-17T05:44:54;101878.91;;;8.02;79.61
8653;BME280;4364;52.426;9.424;2023-05-17T05:47:22;101879.84;;;8.08;78.13
8653;BME280;4364;52.426;9.424;2023-05-17T05:49:48;101890.00;;;8.12;77.02
8653;BME280;4364;52.426;9.424;2023-05-17T05:52:16;101877.75;;;8.22;76.99
8653;BME280;4364;52.426;9.424;2023-05-17T05:54:43;101877.31;;;8.37;76.75
8653;BME280;4364;52.426;9.424;2023-05-17T05:57:10;101889.34;;;8.41;75.42
8653;BME280;4364;52.426;9.424;2023-05-17T05:59:38;101896.38;;;8.30;74.52
8653;BME280;4364;52.426;9.424;2023-05-17T06:02:05;101898.03;;;8.31;74.65
8653;BME280;4364;52.426;9.424;2023-05-17T06:04:31;101901.47;;;8.38;74.48
8653;BME280;4364;52.426;9.424;2023-05-17T06:07:11;101897.28;;;8.54;74.18
8653;BME280;4364;52.426;9.424;2023-05-17T06:09:39;101909.66;;;8.62;73.43
8653;BME280;4364;52.426;9.424;2023-05-17T06:12:06;101913.94;;;8.81;72.43
8653;BME280;4364;52.426;9.424;2023-05-17T06:14:32;101913.34;;;8.91;71.25
8653;BME280;4364;52.426;9.424;2023-05-17T06:16:59;101914.75;;;8.82;71.03
8653;BME280;4364;52.426;9.424;2023-05-17T06:19:25;101923.16;;;8.92;70.32
8653;BME280;4364;52.426;9.424;2023-05-17T06:21:52;101925.00;;;8.68;70.44
8653;BME280;4364;52.426;9.424;2023-05-17T06:24:18;101928.44;;;8.75;70.59
8653;BME280;4364;52.426;9.424;2023-05-17T06:26:45;101928.56;;;8.92;70.40
8653;BME280;4364;52.426;9.424;2023-05-17T06:29:12;101929.16;;;8.94;69.90
8653;BME280;4364;52.426;9.424;2023-05-17T06:31:39;101939.66;;;8.90;69.72
8653;BME280;4364;52.426;9.424;2023-05-17T06:34:05;101932.56;;;8.89;68.35
8653;BME280;4364;52.426;9.424;2023-05-17T06:36:32;101937.53;;;8.93;66.72
8653;BME280;4364;52.426;9.424;2023-05-17T06:39:00;101941.53;;;9.02;66.41
8653;BME280;4364;52.426;9.424;2023-05-17T06:41:27;101950.75;;;9.01;64.54
8653;BME280;4364;52.426;9.424;2023-05-17T06:43:54;101944.25;;;9.25;65.27
8653;BME280;4364;52.426;9.424;2023-05-17T06:46:20;101946.94;;;9.37;66.20
8653;BME280;4364;52.426;9.424;2023-05-17T06:48:47;101948.78;;;9.72;64.28
8653;BME280;4364;52.426;9.424;2023-05-17T06:51:16;101947.38;;;9.98;61.51
8653;BME280;4364;52.426;9.424;2023-05-17T06:53:43;101961.53;;;10.00;61.77
8653;BME280;4364;52.426;9.424;2023-05-17T06:56:09;101952.38;;;9.90;61.87
8653;BME280;4364;52.426;9.424;2023-05-17T06:58:36;101958.28;;;9.87;61.50
8653;BME280;4364;52.426;9.424;2023-05-17T07:01:03;101959.22;;;9.80;61.81
8653;BME280;4364;52.426;9.424;2023-05-17T07:03:29;101964.19;;;9.83;61.01
8653;BME280;4364;52.426;9.424;2023-05-17T07:05:56;101965.13;;;9.89;60.84
8653;BME280;4364;52.426;9.424;2023-05-17T07:08:22;101974.84;;;9.73;57.73
8653;BME280;4364;52.426;9.424;2023-05-17T07:10:52;101972.19;;;9.90;57.21
8653;BME280;4364;52.426;9.424;2023-05-17T07:13:19;101980.53;;;10.12;56.30
8653;BME280;4364;52.426;9.424;2023-05-17T07:15:46;101985.50;;;10.04;55.35
8653;BME280;4364;52.426;9.424;2023-05-17T07:18:12;101983.94;;;9.79;56.17
8653;BME280;4364;52.426;9.424;2023-05-17T07:20:39;101984.50;;;9.93;56.75
8653;BME280;4364;52.426;9.424;2023-05-17T07:23:06;101986.22;;;10.11;56.96
8653;BME280;4364;52.426;9.424;2023-05-17T07:25:33;101982.97;;;10.14;55.71
8653;BME280;4364;52.426;9.424;2023-05-17T07:27:59;101985.59;;;10.09;55.57
8653;BME280;4364;52.426;9.424;2023-05-17T07:30:26;101989.53;;;10.30;55.25
8653;BME280;4364;52.426;9.424;2023-05-17T07:32:52;101993.56;;;10.39;55.27
8653;BME280;4364;52.426;9.424;2023-05-17T07:35:19;102007.97;;;10.40;54.71
8653;BME280;4364;52.426;9.424;2023-05-17T07:37:47;101990.28;;;10.25;55.58
8653;BME280;4364;52.426;9.424;2023-05-17T07:40:13;101998.31;;;10.32;55.18
8653;BME280;4364;52.426;9.424;2023-05-17T07:42:46;102003.38;;;10.57;54.57
8653;BME280;4364;52.426;9.424;2023-05-17T07:45:13;102008.44;;;10.82;53.51
8653;BME280;4364;52.426;9.424;2023-05-17T07:47:39;102004.06;;;10.64;53.38
8653;BME280;4364;52.426;9.424;2023-05-17T07:50:06;102013.69;;;10.55;54.40
8653;BME280;4364;52.426;9.424;2023-05-17T07:52:33;102019.78;;;10.62;53.90
8653;BME280;4364;52.426;9.424;2023-05-17T07:55:00;102013.75;;;10.43;54.49
8653;BME280;4364;52.426;9.424;2023-05-17T07:57:27;102019.47;;;10.59;54.78
8653;BME280;4364;52.426;9.424;2023-05-17T07:59:54;102019.47;;;10.75;54.06
8653;BME280;4364;52.426;9.424;2023-05-17T08:02:21;102025.31;;;10.67;54.35
8653;BME280;4364;52.426;9.424;2023-05-17T08:04:47;102032.41;;;10.51;54.11
8653;BME280;4364;52.426;9.424;2023-05-17T08:07:14;102031.47;;;10.91;53.92
8653;BME280;4364;52.426;9.424;2023-05-17T08:09:40;102043.00;;;11.16;54.04
8653;BME280;4364;52.426;9.424;2023-05-17T08:12:09;102036.00;;;11.20;54.04
8653;BME280;4364;52.426;9.424;2023-05-17T08:14:37;102043.09;;;11.04;53.22
8653;BME280;4364;52.426;9.424;2023-05-17T08:17:03;102040.28;;;10.82;52.98
8653;BME280;4364;52.426;9.424;2023-05-17T08:19:30;102044.50;;;10.89;52.05
8653;BME280;4364;52.426;9.424;2023-05-17T08:21:57;102049.94;;;11.06;51.42
8653;BME280;4364;52.426;9.424;2023-05-17T08:24:24;102052.75;;;10.94;52.16
8653;BME280;4364;52.426;9.424;2023-05-17T08:26:50;102056.38;;;11.17;52.08
8653;BME280;4364;52.426;9.424;2023-05-17T08:29:19;102056.94;;;11.02;52.75
8653;BME280;4364;52.426;9.424;2023-05-17T08:31:46;102058.13;;;11.06;51.86
8653;BME280;4364;52.426;9.424;2023-05-17T08:34:13;102053.25;;;11.08;52.81
8653;BME280;4364;52.426;9.424;2023-05-17T08:36:39;102054.81;;;11.04;52.50
8653;BME280;4364;52.426;9.424;2023-05-17T08:39:06;102056.38;;;11.00;52.37
8653;BME280;4364;52.426;9.424;2023-05-17T08:41:34;102073.19;;;10.97;50.85
8653;BME280;4364;52.426;9.424;2023-05-17T08:44:04;102066.13;;;10.96;49.43
8653;BME280;4364;52.426;9.424;2023-05-17T08:46:32;102069.41;;;10.98;49.48
8653;BME280;4364;52.426;9.424;2023-05-17T08:49:00;102065.59;;;10.99;48.53
8653;BME280;4364;52.426;9.424;2023-05-17T08:51:30;102058.59;;;11.37;47.79
8653;BME280;4364;52.426;9.424;2023-05-17T08:53:57;102052.31;;;11.93;47.20
8653;BME280;4364;52.426;9.424;2023-05-17T08:56:24;102053.91;;;11.72;47.45
8653;BME280;4364;52.426;9.424;2023-05-17T08:58:53;102069.03;;;11.62;47.40
8653;BME280;4364;52.426;9.424;2023-05-17T09:01:23;102072.19;;;11.37;47.35
8653;BME280;4364;52.426;9.424;2023-05-17T09:03:52;102070.75;;;11.29;47.33
8653;BME280;4364;52.426;9.424;2023-05-17T09:06:20;102068.69;;;11.20;46.11
8653;BME280;4364;52.426;9.424;2023-05-17T09:08:49;102064.81;;;11.72;44.99
8653;BME280;4364;52.426;9.424;2023-05-17T09:11:26;102075.34;;;11.85;45.10
8653;BME280;4364;52.426;9.424;2023-05-17T09:13:56;102074.44;;;12.18;44.76
8653;BME280;4364;52.426;9.424;2023-05-17T09:16:23;102066.34;;;12.51;43.08
8653;BME280;4364;52.426;9.424;2023-05-17T09:27:08;102073.41;;;12.02;43.44
8653;BME280;4364;52.426;9.424;2023-05-17T09:29:34;102075.81;;;12.21;43.52
8653;BME280;4364;52.426;9.424;2023-05-17T09:32:12;102068.63;;;12.59;42.53
8653;BME280;4364;52.426;9.424;2023-05-17T09:34:40;102068.50;;;12.76;43.87
8653;BME280;4364;52.426;9.424;2023-05-17T09:37:12;102075.78;;;12.38;46.84
8653;BME280;4364;52.426;9.424;2023-05-17T09:39:41;102067.91;;;11.97;48.19
8653;BME280;4364;52.426;9.424;2023-05-17T09:42:11;102065.25;;;12.25;48.42
8653;BME280;4364;52.426;9.424;2023-05-17T09:45:04;102068.81;;;12.25;47.89
8653;BME280;4364;52.426;9.424;2023-05-17T09:47:31;102066.03;;;12.20;47.97
8653;BME280;4364;52.426;9.424;2023-05-17T09:50:01;102079.09;;;12.18;47.19
8653;BME280;4364;52.426;9.424;2023-05-17T09:52:30;102088.09;;;12.68;47.28
8653;BME280;4364;52.426;9.424;2023-05-17T09:54:58;102083.06;;;12.82;45.84
8653;BME280;4364;52.426;9.424;2023-05-17T09:57:27;102074.44;;;12.18;46.50
8653;BME280;4364;52.426;9.424;2023-05-17T09:59:55;102068.00;;;12.25;46.35
8653;BME280;4364;52.426;9.424;2023-05-17T10:02:27;102084.06;;;12.04;46.36
8653;BME280;4364;52.426;9.424;2023-05-17T10:04:55;102089.06;;;11.90;46.34
8653;BME280;4364;52.426;9.424;2023-05-17T10:07:24;102080.06;;;11.73;46.22
8653;BME280;4364;52.426;9.424;2023-05-17T10:09:55;102074.06;;;11.71;45.84
8653;BME280;4364;52.426;9.424;2023-05-17T10:12:26;102080.88;;;11.51;45.32
8653;BME280;4364;52.426;9.424;2023-05-17T10:14:55;102076.94;;;11.98;44.36
8653;BME280;4364;52.426;9.424;2023-05-17T10:17:22;102085.41;;;12.73;43.12
8653;BME280;4364;52.426;9.424;2023-05-17T10:19:49;102080.84;;;12.78;42.15
8653;BME280;4364;52.426;9.424;2023-05-17T10:22:17;102079.47;;;12.54;42.94
8653;BME280;4364;52.426;9.424;2023-05-17T10:24:49;102078.47;;;12.60;42.76
8653;BME280;4364;52.426;9.424;2023-05-17T10:27:17;102087.75;;;12.37;43.83
8653;BME280;4364;52.426;9.424;2023-05-17T10:29:44;102083.44;;;12.41;44.25
8653;BME280;4364;52.426;9.424;2023-05-17T10:32:13;102092.25;;;12.26;44.25
8653;BME280;4364;52.426;9.424;2023-05-17T10:34:42;102084.47;;;12.35;44.73
8653;BME280;4364;52.426;9.424;2023-05-17T10:37:12;102086.66;;;12.60;45.19
8653;BME280;4364;52.426;9.424;2023-05-17T10:39:40;102096.28;;;12.95;45.10
8653;BME280;4364;52.426;9.424;2023-05-17T10:42:09;102088.63;;;13.29;43.49
8653;BME280;4364;52.426;9.424;2023-05-17T10:44:41;102086.31;;;13.11;43.61
8653;BME280;4364;52.426;9.424;2023-05-17T10:47:09;102091.50;;;13.12;42.53
8653;BME280;4364;52.426;9.424;2023-05-17T10:49:37;102087.47;;;13.52;41.46
8653;BME280;4364;52.426;9.424;2023-05-17T10:52:13;102084.13;;;13.88;39.91
8653;BME280;4364;52.426;9.424;2023-05-17T10:54:42;102084.09;;;13.83;41.40
8653;BME280;4364;52.426;9.424;2023-05-17T10:57:21;102095.50;;;13.69;41.99
8653;BME280;4364;52.426;9.424;2023-05-17T10:59:58;102092.78;;;13.32;41.47
8653;BME280;4364;52.426;9.424;2023-05-17T11:02:31;102094.19;;;12.75;43.26
8653;BME280;4364;52.426;9.424;2023-05-17T11:04:58;102093.53;;;12.68;43.35
8653;BME280;4364;52.426;9.424;2023-05-17T11:07:29;102093.44;;;13.12;42.83
8653;BME280;4364;52.426;9.424;2023-05-17T11:12:38;102089.63;;;12.86;42.85
8653;BME280;4364;52.426;9.424;2023-05-17T11:15:14;102101.75;;;12.95;41.87
8653;BME280;4364;52.426;9.424;2023-05-17T11:23:05;102072.97;;;13.47;40.63
8653;BME280;4364;52.426;9.424;2023-05-17T11:25:34;102074.06;;;13.13;41.87
8653;BME280;4364;52.426;9.424;2023-05-17T11:28:16;102068.50;;;13.36;41.44
8653;BME280;4364;52.426;9.424;2023-05-17T11:30:44;102064.09;;;13.72;40.83
8653;BME280;4364;52.426;9.424;2023-05-17T11:33:17;102063.06;;;13.41;41.21
8653;BME280;4364;52.426;9.424;2023-05-17T11:36:12;102078.38;;;13.09;42.58
8653;BME280;4364;52.426;9.424;2023-05-17T11:38:39;102084.69;;;12.83;44.60
8653;BME280;4364;52.426;9.424;2023-05-17T11:41:56;102074.13;;;12.91;44.08
8653;BME280;4364;52.426;9.424;2023-05-17T11:44:32;102081.59;;;12.74;43.32
8653;BME280;4364;52.426;9.424;2023-05-17T11:47:07;102087.53;;;12.66;43.60
8653;BME280;4364;52.426;9.424;2023-05-17T11:49:37;102096.84;;;12.97;42.71
8653;BME280;4364;52.426;9.424;2023-05-17T11:52:05;102093.94;;;13.09;42.21
8653;BME280;4364;52.426;9.424;2023-05-17T11:54:32;102095.56;;;13.05;43.92
8653;BME280;4364;52.426;9.424;2023-05-17T11:56:59;102093.56;;;12.95;45.07
8653;BME280;4364;52.426;9.424;2023-05-17T11:59:28;102089.88;;;12.84;44.80
8653;BME280;4364;52.426;9.424;2023-05-17T12:01:54;102104.63;;;12.83;46.07
8653;BME280;4364;52.426;9.424;2023-05-17T12:04:23;102097.78;;;12.53;45.00
8653;BME280;4364;52.426;9.424;2023-05-17T12:06:52;102100.25;;;12.55;44.42
8653;BME280;4364;52.426;9.424;2023-05-17T12:09:21;102098.06;;;12.57;43.32
8653;BME280;4364;52.426;9.424;2023-05-17T12:11:48;102102.78;;;13.21;43.72
8653;BME280;4364;52.426;9.424;2023-05-17T12:14:16;102104.09;;;13.46;42.04
8653;BME280;4364;52.426;9.424;2023-05-17T12:16:50;102110.63;;;13.12;41.29
8653;BME280;4364;52.426;9.424;2023-05-17T12:19:22;102104.69;;;13.53;41.30
8653;BME280;4364;52.426;9.424;2023-05-17T12:21:50;102104.78;;;13.63;40.20
8653;BME280;4364;52.426;9.424;2023-05-17T12:24:17;102106.56;;;13.85;39.81
8653;BME280;4364;52.426;9.424;2023-05-17T12:26:45;102099.41;;;14.37;38.75
8653;BME280;4364;52.426;9.424;2023-05-17T12:29:17;102128.19;;;14.55;38.38
8653;BME280;4364;52.426;9.424;2023-05-17T12:31:47;102107.31;;;14.33;37.78
8653;BME280;4364;52.426;9.424;2023-05-17T12:34:16;102110.34;;;14.37;37.83
8653;BME280;4364;52.426;9.424;2023-05-17T12:36:43;102111.59;;;14.08;38.89
8653;BME280;4364;52.426;9.424;2023-05-17T12:39:11;102113.66;;;13.86;38.79
8653;BME280;4364;52.426;9.424;2023-05-17T12:41:39;102108.28;;;13.59;39.98
8653;BME280;4364;52.426;9.424;2023-05-17T12:44:07;102115.31;;;13.87;39.15
8653;BME280;4364;52.426;9.424;2023-05-17T12:46:42;102113.25;;;13.62;39.90
8653;BME280;4364;52.426;9.424;2023-05-17T12:49:09;102122.09;;;13.42;40.52
8653;BME280;4364;52.426;9.424;2023-05-17T12:51:44;102122.78;;;13.27;41.60
8653;BME280;4364;52.426;9.424;2023-05-17T12:54:13;102121.22;;;13.36;40.53
8653;BME280;4364;52.426;9.424;2023-05-17T12:56:41;102117.53;;;13.20;40.70
8653;BME280;4364;52.426;9.424;2023-05-17T12:59:15;102115.47;;;13.70;40.48
8653;BME280;4364;52.426;9.424;2023-05-17T13:01:46;102101.97;;;14.01;39.70
8653;BME280;4364;52.426;9.424;2023-05-17T13:04:15;102118.31;;;13.85;39.80
8653;BME280;4364;52.426;9.424;2023-05-17T13:09:10;102114.81;;;13.52;41.33
8653;BME280;4364;52.426;9.424;2023-05-17T13:11:36;102125.13;;;13.45;41.52
8653;BME280;4364;52.426;9.424;2023-05-17T13:14:08;102120.97;;;13.38;42.34
8653;BME280;4364;52.426;9.424;2023-05-17T13:16:38;102133.66;;;13.54;42.38
8653;BME280;4364;52.426;9.424;2023-05-17T13:19:12;102130.38;;;13.52;43.05
8653;BME280;4364;52.426;9.424;2023-05-17T13:21:39;102122.50;;;13.61;42.85
8653;BME280;4364;52.426;9.424;2023-05-17T13:24:08;102128.97;;;13.49;41.51
8653;BME280;4364;52.426;9.424;2023-05-17T13:26:34;102131.75;;;13.55;40.94
8653;BME280;4364;52.426;9.424;2023-05-17T13:29:01;102129.47;;;13.79;41.50
8653;BME280;4364;52.426;9.424;2023-05-17T13:31:27;102120.25;;;13.90;40.52
8653;BME280;4364;52.426;9.424;2023-05-17T13:33:54;102121.94;;;14.01;39.38
8653;BME280;4364;52.426;9.424;2023-05-17T13:36:20;102118.97;;;14.13;39.61
8653;BME280;4364;52.426;9.424;2023-05-17T13:38:47;102125.84;;;14.16;41.05
8653;BME280;4364;52.426;9.424;2023-05-17T13:41:14;102129.59;;;13.99;42.60
8653;BME280;4364;52.426;9.424;2023-05-17T13:43:41;102122.00;;;13.64;43.44
8653;BME280;4364;52.426;9.424;2023-05-17T13:46:08;102127.53;;;13.37;44.42
8653;BME280;4364;52.426;9.424;2023-05-17T13:48:34;102128.59;;;13.36;45.12